Time;durP1;ratioP1;P1;durP2;ratioP2;P2;SDS_P1;SDS_P2;PMS_P1;PMS_P2;Temp;Humidity;BMP_temperature;BMP_pressure;BME280_temperature;BME280_humidity;BME280_pressure;Samples;Min_cycle;Max_cycle;Signal;HPM_P1;HPM_P2
2023/11/20 00:01:05;;;;;;;36.50;17.07;;;5.40;99.90;;;;;;4457937;28;658078;-72
2023/11/20 00:03:53;;;;;;;26.80;13.93;;;5.40;99.90;;;;;;4454669;28;657398;-72
2023/11/20 00:06:40;;;;;;;35.93;17.20;;;5.40;99.90;;;;;;4432024;28;657548;-73
2023/11/20 00:09:28;;;;;;;21.63;10.63;;;5.40;99.90;;;;;;4440581;28;657962;-72
2023/11/20 00:12:15;;;;;;;36.17;15.87;;;5.40;99.90;;;;;;4452014;28;658251;-72
2023/11/20 00:15:03;;;;;;;35.73;17.07;;;5.40;99.90;;;;;;4445551;28;657711;-72
2023/11/20 00:17:50;;;;;;;35.60;17.37;;;5.50;99.90;;;;;;4460315;28;657663;-73
2023/11/20 00:20:39;;;;;;;35.23;17.17;;;5.40;99.90;;;;;;4437171;28;657798;-73
2023/11/20 00:23:26;;;;;;;23.63;11.13;;;5.50;99.90;;;;;;4454673;27;658104;-73
2023/11/20 00:26:14;;;;;;;33.77;17.40;;;5.50;99.90;;;;;;4435663;28;657511;-73
2023/11/20 00:29:01;;;;;;;38.23;17.40;;;5.50;99.90;;;;;;4465991;28;658036;-73
2023/11/20 00:31:48;;;;;;;37.63;18.07;;;5.50;99.90;;;;;;4429297;27;657412;-73
2023/11/20 00:34:37;;;;;;;34.27;16.73;;;5.50;99.90;;;;;;4446210;27;658957;-73
2023/11/20 00:37:25;;;;;;;32.70;14.00;;;5.50;99.90;;;;;;4430546;27;658018;-73
2023/11/20 00:40:13;;;;;;;34.20;17.42;;;5.60;99.90;;;;;;4426871;27;659323;-72
2023/11/20 00:43:00;;;;;;;35.00;18.80;;;5.50;99.90;;;;;;4456349;28;658116;-73
2023/11/20 00:45:47;;;;;;;39.13;19.23;;;5.50;99.90;;;;;;4437904;27;657667;-73
2023/11/20 00:48:35;;;;;;;37.17;17.63;;;5.60;99.90;;;;;;4462524;27;658680;-72
2023/11/20 00:51:22;;;;;;;34.27;14.83;;;5.50;99.90;;;;;;4450931;28;656707;-73
2023/11/20 00:54:11;;;;;;;34.33;17.00;;;5.50;99.90;;;;;;4434983;27;657929;-73
2023/11/20 00:56:58;;;;;;;16.37;7.80;;;5.50;99.90;;;;;;4432990;27;657887;-73
2023/11/20 00:59:46;;;;;;;37.10;18.73;;;5.60;99.90;;;;;;4463381;27;657342;-73
2023/11/20 01:02:33;;;;;;;26.67;12.03;;;5.50;99.90;;;;;;4429419;28;657687;-73
2023/11/20 01:05:22;;;;;;;41.53;18.60;;;5.50;99.90;;;;;;4455511;27;657320;-73
2023/11/20 01:08:09;;;;;;;37.40;18.30;;;5.60;99.90;;;;;;4435249;27;657864;-73
2023/11/20 01:10:57;;;;;;;23.40;9.13;;;5.50;99.90;;;;;;4457484;27;657154;-73
2023/11/20 01:13:45;;;;;;;28.03;12.97;;;5.50;99.90;;;;;;4435124;27;657059;-73
2023/11/20 01:16:33;;;;;;;16.57;7.50;;;5.60;99.90;;;;;;4457705;27;657524;-71
2023/11/20 01:19:20;;;;;;;40.57;19.77;;;5.60;99.90;;;;;;4463127;27;656543;-73
2023/11/20 01:22:08;;;;;;;38.17;19.27;;;5.50;99.90;;;;;;4452557;27;657952;-73
2023/11/20 01:24:55;;;;;;;41.13;18.57;;;5.50;99.90;;;;;;4463036;27;658571;-73
2023/11/20 01:27:44;;;;;;;33.50;17.33;;;5.50;99.90;;;;;;4439525;28;657168;-73
2023/11/20 01:30:31;;;;;;;38.07;17.77;;;5.50;99.90;;;;;;4448290;27;657546;-73
2023/11/20 01:33:18;;;;;;;35.03;17.43;;;5.50;99.90;;;;;;4436553;27;657627;-73
2023/11/20 01:36:06;;;;;;;34.33;17.63;;;5.50;99.90;;;;;;4453495;27;657589;-72
2023/11/20 01:38:53;;;;;;;35.07;17.43;;;5.40;99.90;;;;;;4435182;27;657474;-73
2023/11/20 01:41:41;;;;;;;36.60;19.43;;;5.40;99.90;;;;;;4448363;28;658287;-73
2023/11/20 01:44:29;;;;;;;12.90;6.60;;;5.40;99.90;;;;;;4435783;27;657619;-72
2023/11/20 01:47:17;;;;;;;35.00;18.43;;;5.40;99.90;;;;;;4459348;27;658328;-73
2023/11/20 01:50:05;;;;;;;35.60;16.13;;;5.40;99.90;;;;;;4428695;27;657781;-73
2023/11/20 01:52:53;;;;;;;46.33;19.73;;;5.40;99.90;;;;;;4434201;27;657121;-73
2023/11/20 01:55:40;;;;;;;40.10;20.80;;;5.50;99.90;;;;;;4454822;27;657653;-73
2023/11/20 01:58:27;;;;;;;40.97;20.70;;;5.40;99.90;;;;;;4444360;27;657423;-73
2023/11/20 02:01:16;;;;;;;36.00;18.43;;;5.40;99.90;;;;;;4456499;27;657812;-73
2023/11/20 02:04:04;;;;;;;33.97;15.13;;;5.40;99.90;;;;;;4441663;27;658324;-73
2023/11/20 02:06:51;;;;;;;38.00;18.07;;;5.50;99.90;;;;;;4467041;27;657117;-73
2023/11/20 02:09:38;;;;;;;19.10;10.80;;;5.50;99.90;;;;;;4431797;28;657507;-72
2023/11/20 02:12:26;;;;;;;33.03;15.83;;;5.50;99.90;;;;;;4451094;27;658173;-73
2023/11/20 02:15:13;;;;;;;30.27;14.97;;;5.50;99.90;;;;;;4437957;27;657398;-73
2023/11/20 02:18:01;;;;;;;35.30;19.00;;;5.50;99.90;;;;;;4448262;27;657855;-73
2023/11/20 02:20:48;;;;;;;36.87;18.33;;;5.50;99.90;;;;;;4443008;27;658050;-73
2023/11/20 02:23:36;;;;;;;34.87;17.40;;;5.50;99.90;;;;;;4451983;28;658023;-73
2023/11/20 02:26:49;;;;;;;40.20;20.17;;;5.50;99.90;;;;;;4426217;27;657440;-72
2023/11/20 02:29:49;;;;;;;43.10;19.23;;;5.50;99.90;;;;;;4421576;28;657397;-73
2023/11/20 02:32:37;;;;;;;36.87;18.40;;;5.50;99.90;;;;;;4435721;27;657779;-73
2023/11/20 02:35:24;;;;;;;39.17;17.73;;;5.60;99.90;;;;;;4421989;28;658208;-73
2023/11/20 02:38:12;;;;;;;34.93;18.10;;;5.60;99.90;;;;;;4449448;27;657499;-73
2023/11/20 02:40:59;;;;;;;18.60;9.70;;;5.60;99.90;;;;;;4440326;27;657488;-73
2023/11/20 02:43:46;;;;;;;33.33;18.63;;;5.60;99.90;;;;;;4457039;27;656889;-73
2023/11/20 02:46:35;;;;;;;35.33;16.13;;;5.60;99.90;;;;;;4425631;28;657925;-73
2023/11/20 02:49:22;;;;;;;36.87;16.27;;;5.60;99.90;;;;;;4455335;28;658260;-72
2023/11/20 02:52:09;;;;;;;35.00;17.87;;;5.60;99.90;;;;;;4439820;28;658035;-73
2023/11/20 02:54:58;;;;;;;35.17;18.97;;;5.60;99.90;;;;;;4447907;28;657476;-73
2023/11/20 02:57:46;;;;;;;18.77;7.40;;;5.60;99.90;;;;;;4437583;28;657866;-73
2023/11/20 03:00:33;;;;;;;38.30;17.87;;;5.60;99.90;;;;;;4426406;28;657362;-73
2023/11/20 03:03:21;;;;;;;34.93;17.27;;;5.60;99.90;;;;;;4452814;27;657999;-73
2023/11/20 03:06:09;;;;;;;35.80;18.27;;;5.50;99.90;;;;;;4429083;27;657697;-73
2023/11/20 03:08:56;;;;;;;34.27;18.27;;;5.50;99.90;;;;;;4451653;27;657063;-73
2023/11/20 03:11:43;;;;;;;31.63;16.37;;;5.50;99.90;;;;;;4440286;27;657366;-73
2023/11/20 03:14:30;;;;;;;31.87;14.40;;;5.60;99.90;;;;;;4468908;27;658056;-73
2023/11/20 03:17:17;;;;;;;30.13;15.27;;;5.50;99.90;;;;;;4433967;28;657456;-73
2023/11/20 03:20:07;;;;;;;28.27;14.68;;;5.50;99.90;;;;;;4455433;28;658144;-73
2023/11/20 03:22:55;;;;;;;34.20;16.67;;;5.60;99.90;;;;;;4435254;27;658182;-73
2023/11/20 03:25:42;;;;;;;34.67;15.53;;;5.50;99.90;;;;;;4460238;28;657697;-73
2023/11/20 03:28:29;;;;;;;34.60;16.40;;;5.50;99.90;;;;;;4421664;28;659071;-73
2023/11/20 03:31:16;;;;;;;25.47;11.17;;;5.60;99.90;;;;;;4451621;28;658012;-73
2023/11/20 03:34:04;;;;;;;26.30;15.02;;;5.60;99.90;;;;;;4430932;28;658486;-73
2023/11/20 03:36:52;;;;;;;32.83;16.47;;;5.60;99.90;;;;;;4466772;28;657713;-73
2023/11/20 03:39:39;;;;;;;34.87;18.07;;;5.50;99.90;;;;;;4431368;28;658305;-73
2023/11/20 03:42:27;;;;;;;38.63;18.00;;;5.50;99.90;;;;;;4456731;28;657509;-73
2023/11/20 03:45:14;;;;;;;31.07;16.13;;;5.50;99.90;;;;;;4422383;28;658287;-73
2023/11/20 03:48:01;;;;;;;41.60;17.40;;;5.50;99.90;;;;;;4457459;28;657129;-73
2023/11/20 03:50:48;;;;;;;31.97;16.77;;;5.50;99.90;;;;;;4434599;28;658274;-73
2023/11/20 03:53:37;;;;;;;30.90;16.33;;;5.50;99.90;;;;;;4465463;28;658204;-73
2023/11/20 03:56:24;;;;;;;38.50;17.27;;;5.50;99.90;;;;;;4430177;28;658264;-73
2023/11/20 03:59:12;;;;;;;18.47;8.33;;;5.50;99.90;;;;;;4452694;28;658107;-73
2023/11/20 04:01:59;;;;;;;34.93;16.20;;;5.50;99.90;;;;;;4429253;28;657583;-73
2023/11/20 04:04:47;;;;;;;29.23;14.35;;;5.50;99.90;;;;;;4462156;28;658029;-73
2023/11/20 04:07:34;;;;;;;34.70;16.87;;;5.50;99.90;;;;;;4435413;28;657162;-73
2023/11/20 04:10:22;;;;;;;22.17;9.13;;;5.50;99.90;;;;;;4454680;28;657954;-72
2023/11/20 04:13:10;;;;;;;17.83;7.47;;;5.50;99.90;;;;;;4435626;28;656663;-73
2023/11/20 04:15:58;;;;;;;37.08;17.67;;;5.50;99.90;;;;;;4437991;28;656371;-73
2023/11/20 04:18:45;;;;;;;31.37;14.50;;;5.50;99.90;;;;;;4454626;28;658432;-73
2023/11/20 04:21:32;;;;;;;41.47;16.67;;;5.50;99.90;;;;;;4452946;28;657582;-73
2023/11/20 04:24:19;;;;;;;37.50;18.23;;;5.50;99.90;;;;;;4455782;28;657150;-73
2023/11/20 04:27:08;;;;;;;38.40;16.93;;;5.50;99.90;;;;;;4459358;28;657122;-73
2023/11/20 04:29:56;;;;;;;43.90;20.27;;;5.50;99.90;;;;;;4439453;27;656928;-73
2023/11/20 04:32:43;;;;;;;27.43;10.27;;;5.50;99.90;;;;;;4438828;27;658075;-73
2023/11/20 04:35:30;;;;;;;49.27;21.27;;;5.60;99.90;;;;;;4463176;27;657464;-73
2023/11/20 04:38:17;;;;;;;40.37;18.60;;;5.60;99.90;;;;;;4431906;28;657966;-73
2023/11/20 04:41:05;;;;;;;21.60;8.50;;;5.50;99.90;;;;;;4451629;27;658299;-73
2023/11/20 04:43:54;;;;;;;31.10;13.50;;;5.60;99.90;;;;;;4437438;28;657182;-73
2023/11/20 04:46:42;;;;;;;23.13;10.53;;;5.60;99.90;;;;;;4447565;27;657269;-73
2023/11/20 04:49:29;;;;;;;40.57;17.43;;;5.60;99.90;;;;;;4438409;27;658313;-73
2023/11/20 04:52:16;;;;;;;37.37;14.83;;;5.60;99.90;;;;;;4461995;28;657332;-73
2023/11/20 04:55:04;;;;;;;53.50;22.80;;;5.60;99.90;;;;;;4438714;27;657557;-73
2023/11/20 04:57:51;;;;;;;43.00;15.23;;;5.60;99.90;;;;;;4460331;27;658465;-73
2023/11/20 05:00:40;;;;;;;51.13;23.33;;;5.70;99.90;;;;;;4440928;28;656967;-74
2023/11/20 05:03:27;;;;;;;50.27;21.70;;;5.70;99.90;;;;;;4443358;28;657513;-73
2023/11/20 05:06:15;;;;;;;33.53;15.00;;;5.70;99.90;;;;;;4448642;28;658212;-74
2023/11/20 05:09:03;;;;;;;19.23;8.87;;;5.70;99.90;;;;;;4466057;27;657877;-73
2023/11/20 05:11:50;;;;;;;51.17;23.63;;;5.80;99.90;;;;;;4432800;27;656664;-73
2023/11/20 05:14:37;;;;;;;10.60;5.50;;;5.80;99.90;;;;;;4448225;27;658038;-73
2023/11/20 05:17:28;;;;;;;46.00;20.80;;;5.80;99.90;;;;;;4460139;27;657841;-73
2023/11/20 05:20:15;;;;;;;35.83;15.33;;;5.80;99.90;;;;;;4437406;28;658020;-74
2023/11/20 05:23:03;;;;;;;35.10;14.50;;;5.80;99.90;;;;;;4441264;27;657920;-73
2023/11/20 05:25:51;;;;;;;34.97;13.20;;;5.90;99.90;;;;;;4462078;27;658547;-73
2023/11/20 05:28:38;;;;;;;39.67;18.50;;;5.90;99.90;;;;;;4427766;27;657544;-73
2023/11/20 05:31:25;;;;;;;36.80;15.70;;;5.90;99.90;;;;;;4448835;28;657329;-73
2023/11/20 05:34:14;;;;;;;52.77;23.20;;;6.00;99.90;;;;;;4427837;27;657308;-73
2023/11/20 05:37:01;;;;;;;46.03;23.20;;;6.00;99.90;;;;;;4446969;28;657747;-73
2023/11/20 05:39:48;;;;;;;48.47;22.60;;;6.00;99.90;;;;;;4442018;27;658579;-73
2023/11/20 05:42:35;;;;;;;54.97;23.33;;;5.90;99.90;;;;;;4452045;27;657822;-73
2023/11/20 05:45:23;;;;;;;13.93;6.93;;;6.00;99.90;;;;;;4434722;27;658295;-72
2023/11/20 05:48:10;;;;;;;31.53;6.70;;;6.00;99.90;;;;;;4453589;27;656885;-73
2023/11/20 05:50:59;;;;;;;40.07;17.67;;;6.10;99.90;;;;;;4437329;28;656597;-74
2023/11/20 05:53:46;;;;;;;48.13;22.17;;;6.00;99.90;;;;;;4455230;27;657342;-74
2023/11/20 05:56:33;;;;;;;45.03;23.30;;;6.10;99.90;;;;;;4433340;27;657823;-73
2023/11/20 05:59:21;;;;;;;43.50;18.37;;;6.10;99.90;;;;;;4455715;28;658643;-74
2023/11/20 06:02:08;;;;;;;35.93;12.17;;;6.10;99.90;;;;;;4425675;28;657819;-74
2023/11/20 06:04:55;;;;;;;49.70;23.63;;;6.10;99.90;;;;;;4457973;28;658261;-73
2023/11/20 06:07:44;;;;;;;47.80;21.87;;;6.10;99.90;;;;;;4447331;28;658043;-73
2023/11/20 06:10:31;;;;;;;19.97;8.57;;;6.10;99.90;;;;;;4447467;28;657818;-71
2023/11/20 06:13:19;;;;;;;15.83;9.20;;;6.20;99.90;;;;;;4426571;28;659091;-73
2023/11/20 06:16:13;;;;;;;45.40;22.97;;;6.20;99.90;;;;;;4459615;28;656549;-73
2023/11/20 06:19:01;;;;;;;41.57;21.40;;;6.20;99.90;;;;;;4428367;27;658347;-73
2023/11/20 06:21:49;;;;;;;51.77;22.93;;;6.20;99.90;;;;;;4434096;27;658632;-73
2023/11/20 06:24:37;;;;;;;45.03;21.73;;;6.20;99.90;;;;;;4454073;27;657742;-74
2023/11/20 06:27:25;;;;;;;34.87;14.70;;;6.20;99.90;;;;;;4434206;27;657771;-74
2023/11/20 06:30:13;;;;;;;42.63;20.80;;;6.20;99.90;;;;;;4447723;27;658266;-74
2023/11/20 06:33:00;;;;;;;51.93;22.20;;;6.30;99.90;;;;;;4453559;28;657683;-73
2023/11/20 06:35:47;;;;;;;44.70;20.03;;;6.30;99.90;;;;;;4449628;27;657924;-73
2023/11/20 06:38:35;;;;;;;11.20;6.30;;;6.30;99.90;;;;;;4464326;27;657800;-73
2023/11/20 06:41:25;;;;;;;46.27;21.37;;;6.40;99.90;;;;;;4443559;27;657219;-73
2023/11/20 06:44:12;;;;;;;42.20;20.43;;;6.30;99.90;;;;;;4444146;27;657465;-74
2023/11/20 06:46:59;;;;;;;29.00;15.10;;;6.30;99.90;;;;;;4464083;27;657801;-73
2023/11/20 06:49:47;;;;;;;24.00;9.97;;;6.30;99.90;;;;;;4469803;27;657170;-73
2023/11/20 06:52:34;;;;;;;39.33;19.70;;;6.40;99.90;;;;;;4418405;28;656426;-74
2023/11/20 06:55:22;;;;;;;37.07;19.13;;;6.40;99.90;;;;;;4450698;28;657792;-74
2023/11/20 06:58:11;;;;;;;37.47;18.93;;;6.40;99.90;;;;;;4433226;28;658033;-73
2023/11/20 07:01:00;;;;;;;21.17;10.50;;;6.40;99.90;;;;;;4442949;28;657812;-74
2023/11/20 07:03:47;;;;;;;33.30;14.13;;;6.50;99.90;;;;;;4450186;28;657226;-73
2023/11/20 07:06:35;;;;;;;40.73;19.63;;;6.50;99.90;;;;;;4456025;27;658557;-74
2023/11/20 07:09:28;;;;;;;37.83;18.43;;;6.50;99.90;;;;;;4439207;28;657325;-74
2023/11/20 07:12:16;;;;;;;36.20;14.33;;;6.50;99.90;;;;;;4432091;28;658610;-74
2023/11/20 07:15:07;;;;;;;40.67;18.27;;;6.60;99.90;;;;;;4433879;28;657754;-74
2023/11/20 07:17:54;;;;;;;35.97;17.10;;;6.60;99.90;;;;;;4427655;27;657871;-74
2023/11/20 07:20:42;;;;;;;21.77;10.43;;;6.50;99.90;;;;;;4451774;28;657617;-75
2023/11/20 07:23:29;;;;;;;23.30;11.97;;;6.60;99.90;;;;;;4436869;28;658555;-74
2023/11/20 07:26:17;;;;;;;25.03;11.67;;;6.60;99.90;;;;;;4455016;28;657385;-74
2023/11/20 07:29:04;;;;;;;36.03;16.47;;;6.60;99.90;;;;;;4415659;28;658608;-74
2023/11/20 07:31:53;;;;;;;35.27;17.03;;;6.60;99.90;;;;;;4442025;28;658539;-74
2023/11/20 07:34:40;;;;;;;20.13;10.63;;;6.70;99.90;;;;;;4421306;28;658540;-74
2023/11/20 07:37:27;;;;;;;39.88;15.90;;;6.70;99.90;;;;;;4429807;28;657884;-73
2023/11/20 07:40:15;;;;;;;32.07;16.47;;;6.70;99.90;;;;;;4447937;28;658322;-74
2023/11/20 07:43:02;;;;;;;43.33;18.03;;;6.70;99.90;;;;;;4432535;28;657874;-73
2023/11/20 07:45:50;;;;;;;34.20;15.43;;;6.70;99.90;;;;;;4462334;28;659089;-73
2023/11/20 07:48:39;;;;;;;37.67;18.87;;;6.70;99.90;;;;;;4464332;28;658159;-73
2023/11/20 07:51:26;;;;;;;18.97;7.20;;;6.70;99.90;;;;;;4459905;28;657388;-73
2023/11/20 07:54:14;;;;;;;22.77;10.67;;;6.80;99.90;;;;;;4437868;28;657385;-73
2023/11/20 07:57:02;;;;;;;34.30;14.50;;;6.70;99.90;;;;;;4456823;28;657219;-73
2023/11/20 07:59:50;;;;;;;25.67;11.33;;;6.70;99.90;;;;;;4428435;28;658693;-74
2023/11/20 08:02:37;;;;;;;41.72;17.52;;;6.70;99.90;;;;;;4444052;27;657598;-74
2023/11/20 08:05:27;;;;;;;24.60;12.40;;;6.80;99.90;;;;;;4454180;28;657702;-73
2023/11/20 08:08:14;;;;;;;24.80;9.03;;;6.70;99.90;;;;;;4437069;27;661024;-73
2023/11/20 08:11:01;;;;;;;37.93;17.13;;;6.80;99.90;;;;;;4442572;27;656810;-75
2023/11/20 08:13:49;;;;;;;32.65;16.20;;;6.80;99.90;;;;;;4423705;28;658013;-74
2023/11/20 08:16:37;;;;;;;33.70;14.23;;;6.80;99.90;;;;;;4463133;28;657407;-74
2023/11/20 08:19:25;;;;;;;9.47;5.47;;;6.80;99.90;;;;;;4438488;27;658307;-74
2023/11/20 08:22:15;;;;;;;26.43;12.17;;;6.80;99.90;;;;;;4449841;28;655855;-73
2023/11/20 08:25:03;;;;;;;27.00;13.90;;;6.80;99.90;;;;;;4426470;28;657531;-73
2023/11/20 08:27:50;;;;;;;25.83;10.30;;;6.80;99.90;;;;;;4459980;27;659482;-73
2023/11/20 08:30:37;;;;;;;25.20;13.93;;;6.80;99.90;;;;;;4449576;27;658110;-73
2023/11/20 08:33:25;;;;;;;29.93;14.80;;;6.70;99.90;;;;;;4457444;27;658890;-74
2023/11/20 08:36:13;;;;;;;36.97;13.50;;;6.70;99.90;;;;;;4444028;27;657266;-74
2023/11/20 08:39:05;;;;;;;29.63;15.20;;;6.70;99.90;;;;;;4458153;27;658744;-74
2023/11/20 08:41:52;;;;;;;34.37;15.13;;;6.70;99.90;;;;;;4419626;27;657489;-74
2023/11/20 08:44:40;;;;;;;26.73;14.43;;;6.80;99.90;;;;;;4460799;27;657508;-74
2023/11/20 08:47:27;;;;;;;29.20;13.50;;;6.80;99.90;;;;;;4460195;27;658198;-74
2023/11/20 08:50:15;;;;;;;32.07;14.63;;;6.90;99.90;;;;;;4436651;28;658246;-74
2023/11/20 08:53:03;;;;;;;18.83;9.80;;;6.80;99.90;;;;;;4441187;28;657165;-73
2023/11/20 08:55:51;;;;;;;25.47;12.93;;;6.80;99.90;;;;;;4461911;27;656652;-73
2023/11/20 08:58:38;;;;;;;28.53;14.33;;;6.80;99.90;;;;;;4433508;28;658035;-74
2023/11/20 09:01:33;;;;;;;26.48;12.95;;;6.90;99.90;;;;;;4452906;27;658617;-74
2023/11/20 09:04:21;;;;;;;27.73;13.40;;;6.90;99.90;;;;;;4427510;28;658189;-74
2023/11/20 09:07:08;;;;;;;25.10;10.57;;;6.90;99.90;;;;;;4430899;27;657701;-73
2023/11/20 09:09:55;;;;;;;24.63;11.90;;;6.90;99.90;;;;;;4454564;27;658682;-74
2023/11/20 09:12:44;;;;;;;35.53;13.57;;;6.90;99.90;;;;;;4427644;28;657568;-74
2023/11/20 09:15:31;;;;;;;11.63;6.67;;;6.80;99.90;;;;;;4463456;27;657906;-73
2023/11/20 09:18:18;;;;;;;23.83;12.75;;;6.90;99.90;;;;;;4427081;28;656472;-73
2023/11/20 09:21:06;;;;;;;29.47;13.40;;;6.90;99.90;;;;;;4445320;27;658648;-74
2023/11/20 09:23:53;;;;;;;21.07;11.30;;;6.90;99.90;;;;;;4429452;28;657595;-74
2023/11/20 09:26:42;;;;;;;26.00;11.83;;;7.00;99.90;;;;;;4454753;28;657494;-74
2023/11/20 09:29:30;;;;;;;12.03;6.50;;;6.90;99.90;;;;;;4428546;27;658464;-74
2023/11/20 09:32:18;;;;;;;24.83;12.57;;;6.90;99.90;;;;;;4432947;27;657372;-74
2023/11/20 09:35:07;;;;;;;26.30;13.27;;;6.90;99.90;;;;;;4451341;28;658998;-74
2023/11/20 09:37:55;;;;;;;26.87;11.90;;;7.00;99.90;;;;;;4430536;27;658396;-74
2023/11/20 09:40:44;;;;;;;25.42;12.10;;;7.00;99.90;;;;;;4437782;27;657618;-73
2023/11/20 09:43:31;;;;;;;28.23;12.27;;;7.00;99.90;;;;;;4442604;28;658032;-73
2023/11/20 09:46:20;;;;;;;24.97;12.47;;;6.90;99.90;;;;;;4438917;27;658127;-74
2023/11/20 09:49:08;;;;;;;12.70;7.10;;;7.00;99.90;;;;;;4463422;27;657855;-73
2023/11/20 09:51:55;;;;;;;24.13;11.57;;;7.10;99.90;;;;;;4445709;27;656890;-74
2023/11/20 09:54:42;;;;;;;23.77;12.60;;;7.10;99.90;;;;;;4448268;27;657911;-73
2023/11/20 09:57:30;;;;;;;23.97;10.50;;;7.10;99.90;;;;;;4455634;27;658162;-73
2023/11/20 10:00:18;;;;;;;22.60;11.47;;;7.00;99.90;;;;;;4454174;28;657889;-73
2023/11/20 10:03:06;;;;;;;22.67;10.77;;;7.00;99.90;;;;;;4445651;28;658159;-73
2023/11/20 10:05:59;;;;;;;10.83;4.67;;;7.10;99.90;;;;;;4439877;27;658284;-73
2023/11/20 10:08:46;;;;;;;18.00;10.40;;;7.10;99.90;;;;;;4432188;27;656379;-73
2023/11/20 10:11:34;;;;;;;18.97;10.03;;;7.10;99.90;;;;;;4429112;27;657990;-74
2023/11/20 10:14:21;;;;;;;19.57;10.93;;;7.00;99.90;;;;;;4457099;27;657767;-73
2023/11/20 10:17:09;;;;;;;19.83;11.27;;;7.10;99.90;;;;;;4429459;27;657541;-73
2023/11/20 10:19:58;;;;;;;15.27;7.47;;;7.10;99.90;;;;;;4447859;28;658013;-73
2023/11/20 10:22:47;;;;;;;8.48;3.67;;;7.20;99.90;;;;;;4422976;28;657817;-73
2023/11/20 10:25:34;;;;;;;13.60;5.17;;;7.20;99.90;;;;;;4442754;27;656060;-73
2023/11/20 10:28:22;;;;;;;18.53;10.40;;;7.20;99.90;;;;;;4451192;27;656463;-73
2023/11/20 10:31:10;;;;;;;19.47;11.00;;;7.20;99.90;;;;;;4429168;27;658245;-73
2023/11/20 10:34:06;;;;;;;18.77;9.53;;;7.20;99.90;;;;;;4436413;27;657390;-74
2023/11/20 10:37:05;;;;;;;14.10;8.93;;;7.20;99.90;;;;;;4437287;27;657020;-74
2023/11/20 10:39:52;;;;;;;16.58;8.60;;;7.20;99.90;;;;;;4432958;27;656351;-72
2023/11/20 10:42:40;;;;;;;17.93;8.43;;;7.30;99.90;;;;;;4449755;27;657349;-74
2023/11/20 10:45:27;;;;;;;12.57;7.57;;;7.30;99.90;;;;;;4451963;28;656598;-74
2023/11/20 10:48:14;;;;;;;15.93;10.20;;;7.20;99.90;;;;;;4436283;27;656953;-73
2023/11/20 10:51:05;;;;;;;17.53;10.60;;;7.30;99.90;;;;;;4447875;28;657173;-73
2023/11/20 10:53:59;;;;;;;22.83;12.00;;;7.20;99.90;;;;;;4415690;27;657692;-74
2023/11/20 10:56:46;;;;;;;15.87;8.50;;;7.20;99.90;;;;;;4435603;27;657864;-73
2023/11/20 10:59:35;;;;;;;23.55;12.15;;;7.30;99.90;;;;;;4446139;27;656632;-72
2023/11/20 11:02:25;;;;;;;22.13;12.90;;;7.30;99.90;;;;;;4448562;28;657683;-74
2023/11/20 11:05:13;;;;;;;18.03;9.93;;;7.30;99.90;;;;;;4436948;27;657579;-75
2023/11/20 11:08:00;;;;;;;20.33;8.50;;;7.30;99.90;;;;;;4447617;27;658056;-75
2023/11/20 11:10:49;;;;;;;13.87;8.33;;;7.30;99.90;;;;;;4434751;28;656183;-74
2023/11/20 11:13:36;;;;;;;23.30;12.27;;;7.40;99.90;;;;;;4448577;28;656490;-75
2023/11/20 11:16:30;;;;;;;19.70;8.80;;;7.30;99.90;;;;;;4432127;28;658721;-75
2023/11/20 11:19:18;;;;;;;21.57;10.83;;;7.30;99.90;;;;;;4426441;28;657755;-75
2023/11/20 11:22:10;;;;;;;22.73;12.10;;;7.30;99.90;;;;;;4456234;28;658191;-74
2023/11/20 11:24:59;;;;;;;19.97;10.53;;;7.30;99.90;;;;;;4413344;28;657343;-74
2023/11/20 11:27:51;;;;;;;22.27;10.47;;;7.20;99.90;;;;;;4448299;28;658535;-75
2023/11/20 11:30:38;;;;;;;17.80;9.73;;;7.20;99.90;;;;;;4428276;28;657618;-74
2023/11/20 11:33:37;;;;;;;19.97;11.30;;;7.10;99.90;;;;;;4463107;28;656978;-74
2023/11/20 11:36:27;;;;;;;19.43;11.50;;;7.20;99.90;;;;;;4408042;28;657915;-74
2023/11/20 11:39:18;;;;;;;19.53;11.50;;;7.20;99.90;;;;;;4437777;28;658019;-74
2023/11/20 11:42:09;;;;;;;22.77;10.90;;;7.20;99.90;;;;;;4435860;28;657916;-74
2023/11/20 11:44:59;;;;;;;20.53;11.80;;;7.20;99.90;;;;;;4430916;28;657997;-74
2023/11/20 11:47:47;;;;;;;19.60;10.40;;;7.30;99.90;;;;;;4433025;28;657763;-74
2023/11/20 11:50:36;;;;;;;17.00;11.10;;;7.20;99.90;;;;;;4437042;28;658188;-73
2023/11/20 11:53:23;;;;;;;17.47;9.37;;;7.20;99.90;;;;;;4434041;28;658032;-74
2023/11/20 11:56:14;;;;;;;19.73;10.90;;;7.30;99.90;;;;;;4461212;28;657530;-74
2023/11/20 11:59:01;;;;;;;16.27;11.20;;;7.30;99.90;;;;;;4428542;28;658025;-74
2023/11/20 12:01:51;;;;;;;11.37;7.13;;;7.30;99.90;;;;;;4443362;28;657967;-74
2023/11/20 12:05:00;;;;;;;20.57;10.30;;;7.30;99.90;;;;;;4445921;28;657287;-74
2023/11/20 12:07:57;;;;;;;14.97;8.73;;;7.30;99.90;;;;;;4441389;28;658486;-74
2023/11/20 12:10:46;;;;;;;19.57;12.17;;;7.30;99.90;;;;;;4405814;28;656659;-74
2023/11/20 12:13:33;;;;;;;18.80;8.43;;;7.30;99.90;;;;;;4427277;28;657995;-73
2023/11/20 12:16:20;;;;;;;24.63;13.63;;;7.30;99.90;;;;;;4448807;28;657537;-74
2023/11/20 12:19:11;;;;;;;21.70;13.37;;;7.40;99.90;;;;;;4443011;28;658161;-74
2023/11/20 12:21:58;;;;;;;22.07;13.20;;;7.50;99.90;;;;;;4425950;28;658369;-74
2023/11/20 12:24:45;;;;;;;12.13;7.37;;;7.50;99.90;;;;;;4454321;28;657708;-74
2023/11/20 12:27:38;;;;;;;17.63;9.60;;;7.50;99.90;;;;;;4429807;28;656762;-74
2023/11/20 12:30:26;;;;;;;14.33;7.63;;;7.50;99.90;;;;;;4432179;28;656962;-73
2023/11/20 12:33:13;;;;;;;11.90;6.60;;;7.40;99.90;;;;;;4436382;28;657627;-74
2023/11/20 12:36:02;;;;;;;23.33;13.53;;;7.40;99.90;;;;;;4469156;28;657432;-74
2023/11/20 12:38:49;;;;;;;24.20;12.77;;;7.40;99.90;;;;;;4431930;28;657898;-74
2023/11/20 12:41:36;;;;;;;19.13;11.33;;;7.50;99.90;;;;;;4458310;28;657142;-74
2023/11/20 12:44:24;;;;;;;20.48;7.00;;;7.40;99.90;;;;;;4421919;28;658200;-73
2023/11/20 12:47:11;;;;;;;23.83;13.07;;;7.40;99.90;;;;;;4443522;28;657020;-74
2023/11/20 12:49:58;;;;;;;10.57;6.37;;;7.50;99.90;;;;;;4436606;27;657901;-74
2023/11/20 12:52:47;;;;;;;32.10;16.20;;;7.50;99.90;;;;;;4455490;28;656727;-74
2023/11/20 12:55:34;;;;;;;23.60;13.80;;;7.50;99.90;;;;;;4433498;28;658677;-74
2023/11/20 12:58:22;;;;;;;25.70;14.17;;;7.50;99.90;;;;;;4463794;27;657551;-74
2023/11/20 13:01:09;;;;;;;22.27;12.43;;;7.50;99.90;;;;;;4442572;27;658058;-74
2023/11/20 13:03:57;;;;;;;23.13;14.33;;;7.50;99.90;;;;;;4459594;27;657580;-74
2023/11/20 13:06:44;;;;;;;27.63;11.90;;;7.40;99.90;;;;;;4440492;27;658126;-74
2023/11/20 13:09:33;;;;;;;22.23;13.60;;;7.50;99.90;;;;;;4444885;28;658994;-74
2023/11/20 13:12:21;;;;;;;21.60;13.03;;;7.50;99.90;;;;;;4432768;27;657997;-74
2023/11/20 13:15:08;;;;;;;21.67;13.40;;;7.50;99.90;;;;;;4428598;28;657600;-74
2023/11/20 13:17:56;;;;;;;12.03;6.10;;;7.50;99.90;;;;;;4454777;28;658222;-74
2023/11/20 13:20:44;;;;;;;17.40;11.55;;;7.50;99.90;;;;;;4419383;28;658036;-74
2023/11/20 13:23:33;;;;;;;11.20;5.80;;;7.60;99.90;;;;;;4464017;27;658225;-74
2023/11/20 13:26:22;;;;;;;24.17;12.57;;;7.60;99.90;;;;;;4429195;28;657101;-74
2023/11/20 13:29:10;;;;;;;24.80;12.63;;;7.50;99.90;;;;;;4433868;27;657488;-74
2023/11/20 13:31:57;;;;;;;20.03;12.30;;;7.50;99.90;;;;;;4442159;28;657717;-74
2023/11/20 13:34:45;;;;;;;9.13;4.27;;;7.50;99.90;;;;;;4457516;27;658302;-73
2023/11/20 13:37:34;;;;;;;23.20;13.03;;;7.50;99.90;;;;;;4440927;28;656174;-74
2023/11/20 13:40:21;;;;;;;19.17;13.27;;;7.50;99.90;;;;;;4449527;28;657515;-74
2023/11/20 13:43:10;;;;;;;26.00;14.00;;;7.50;99.90;;;;;;4423548;28;657515;-74
2023/11/20 13:45:59;;;;;;;19.13;11.63;;;7.50;99.90;;;;;;4450441;27;657860;-74
2023/11/20 13:48:46;;;;;;;24.90;12.87;;;7.60;99.90;;;;;;4452925;28;657548;-74
2023/11/20 13:51:33;;;;;;;19.50;11.50;;;7.50;99.90;;;;;;4430467;28;657206;-74
2023/11/20 13:54:21;;;;;;;20.80;11.87;;;7.60;99.90;;;;;;4459951;27;657690;-74
2023/11/20 13:57:08;;;;;;;22.57;12.33;;;7.50;99.90;;;;;;4438450;28;657773;-74
2023/11/20 13:59:59;;;;;;;19.70;11.73;;;7.60;99.90;;;;;;4452230;27;658232;-74
2023/11/20 14:02:47;;;;;;;22.03;14.27;;;7.60;99.90;;;;;;4439829;27;658342;-74
2023/11/20 14:05:35;;;;;;;24.00;14.23;;;7.50;99.90;;;;;;4429294;27;659008;-74
2023/11/20 14:08:25;;;;;;;25.10;14.73;;;7.50;99.90;;;;;;4453003;27;657578;-74
2023/11/20 14:11:12;;;;;;;27.83;14.27;;;7.60;99.90;;;;;;4422415;28;658171;-73
2023/11/20 14:14:02;;;;;;;24.07;15.27;;;7.50;99.90;;;;;;4451306;28;657679;-74